ADDS METAR Data INFO
IDs: Format: Raw Decoded Include TAF

Data at: 1936 UTC 19 Jul 2018

METAR for:KSPG (St Petersburg/Whitte, FL, US)
Text:KSPG 191853Z 27012KT 10SM SCT030 31/24 A2995 RMK AO2 SLP143 T03060244
Temperature: 30.6°C ( 87°F)
Dewpoint: 24.4°C ( 76°F) [RH = 70%]
Pressure (altimeter):29.95 inches Hg (1014.3 mb) [Sea level pressure: 1014.3 mb]
Winds:from the W (270 degrees) at 14 MPH (12 knots; 6.2 m/s)
Visibility:10 or more sm (16+ km)
Ceiling:at least 12,000 feet AGL
Clouds: scattered clouds at 3000 feet AGL